Columbia Falls, MT (59912)

10:32 AM MDT on September 01, 2015 (GMT -0600)
Tamarack Lane | | Change Station
CLOSE
Current Station
Personal Weather Station
Location: Columbia Falls, Mt
Elevation: 3133 ft
Nearby Weather Stations

Elev 3133 ft 48.38 °N, 114.19 °W | Updated 8 seconds ago

Clear
Clear
65.5 °F
Feels Like 65.5 °F
N
1.8
Wind Variable Wind from North
Gusts 1.8 mph

Today
High -- | Low -- °F
--% Chance of Precip.
Yesterday
High -- | Low -- °F
Precip. -- in
6:54 AM 8:18 PM
Waning Gibbous, 88% visible
Pressure 29.74 in
Visibility 10.0 miles
Clouds Clear
Dew Point 43 °F
Humidity 44%
Rainfall 0.00 in
Snow Depth Not available.
UV 3 out of 12
Pollen 8.10 out of 12
Air Quality Not available.
Flu Activity Not available.
METAR KCTB 011556Z AUTO 25012G26KT 10SM CLR 18/01 A2981 RMK AO2 PK WND 24034/1513 SLP071 T01830011
Pressure 29.74 in
Visibility 10.0 miles
Clouds Clear
Dew Point 43 °F
Humidity 44%
Rainfall 0.00 in
Snow Depth Not available.
UV 3 out of 12
Pollen 8.10 out of 12
Air Quality Not available.
Flu Activity Not available.
METAR KCTB 011556Z AUTO 25012G26KT 10SM CLR 18/01 A2981 RMK AO2 PK WND 24034/1513 SLP071 T01830011

10-Day Weather Forecast

×

Almanac

Astronomy

Sep. 01, 2015 Rise Set
Actual Time
Civil Twilight
Nautical Twilight
Astronomical Twilight
Moon
Length of Visible Light
Length of Day
Tomorrow will be .
, % of the Moon is Illuminated

Today's Extremes

State Highs State Lows

Community

WunderPhotos

Upload Photos

1,851,548 photos uploaded!

WunderBlogs® & News

Nearby

Air Quality

  Air Quality AQ Index Pollutant
Not available.

Snow Depth

Station Depth Elevation

Earthquake Activity

City Distance Mag. Time & Date
Minimum magnitude displayed is 2.5.

Coastal Water Temperatures

Place Temperature

Stations

Nearby Weather Stations

Station Location Temp. Windchill Dew Point Humidity Wind Precip. Elev Updated Type